sensor_id;sensor_type;location;lat;lon;timestamp;pressure;altitude;pressure_sealevel;temperature;humidity
63582;BME280;49727;51.078;17.066;2022-09-09T00:13:06;99772.78;;;14.73;84.79
63582;BME280;49727;51.078;17.066;2022-09-09T00:28:22;99781.84;;;14.45;85.26
63582;BME280;49727;51.078;17.066;2022-09-09T00:59:10;99780.94;;;13.98;85.27
63582;BME280;49727;51.078;17.066;2022-09-09T01:14:32;99777.84;;;13.87;85.56
63582;BME280;49727;51.078;17.066;2022-09-09T01:29:38;99793.25;;;13.79;85.70
63582;BME280;49727;51.078;17.066;2022-09-09T01:44:38;99796.31;;;13.69;85.70
63582;BME280;49727;51.078;17.066;2022-09-09T02:15:00;99814.53;;;13.45;85.86
63582;BME280;49727;51.078;17.066;2022-09-09T02:30:04;99819.13;;;13.30;85.92
63582;BME280;49727;51.078;17.066;2022-09-09T02:45:05;99829.34;;;13.13;85.89
63582;BME280;49727;51.078;17.066;2022-09-09T03:00:06;99835.50;;;13.13;86.45
63582;BME280;49727;51.078;17.066;2022-09-09T03:15:07;99846.94;;;13.00;86.25
63582;BME280;49727;51.078;17.066;2022-09-09T03:30:08;99858.38;;;12.88;86.50
63582;BME280;49727;51.078;17.066;2022-09-09T03:45:09;99863.00;;;12.79;86.54
63582;BME280;49727;51.078;17.066;2022-09-09T04:00:11;99863.22;;;12.77;86.58
63582;BME280;49727;51.078;17.066;2022-09-09T04:15:11;99874.63;;;12.64;86.56
63582;BME280;49727;51.078;17.066;2022-09-09T04:30:12;99880.13;;;12.63;86.89
63582;BME280;49727;51.078;17.066;2022-09-09T04:45:13;99883.53;;;12.72;86.56
63582;BME280;49727;51.078;17.066;2022-09-09T05:00:14;99892.59;;;12.99;86.92
63582;BME280;49727;51.078;17.066;2022-09-09T05:15:14;99900.63;;;13.56;87.08
63582;BME280;49727;51.078;17.066;2022-09-09T05:30:14;99900.69;;;14.17;87.05
63582;BME280;49727;51.078;17.066;2022-09-09T05:45:15;99910.75;;;14.64;86.51
63582;BME280;49727;51.078;17.066;2022-09-09T06:00:15;99911.38;;;15.46;85.77
63582;BME280;49727;51.078;17.066;2022-09-09T06:15:16;99897.91;;;16.64;85.83
63582;BME280;49727;51.078;17.066;2022-09-09T06:30:17;99915.06;;;17.64;83.41
63582;BME280;49727;51.078;17.066;2022-09-09T06:45:17;99924.19;;;18.79;81.75
63582;BME280;49727;51.078;17.066;2022-09-09T07:00:18;99928.56;;;20.39;80.47
63582;BME280;49727;51.078;17.066;2022-09-09T07:15:19;99928.88;;;21.18;76.30
63582;BME280;49727;51.078;17.066;2022-09-09T07:30:19;99932.88;;;21.88;73.64
63582;BME280;49727;51.078;17.066;2022-09-09T07:45:19;99945.19;;;23.27;69.82
63582;BME280;49727;51.078;17.066;2022-09-09T08:00:20;99953.56;;;24.16;64.47
63582;BME280;49727;51.078;17.066;2022-09-09T08:15:22;99948.97;;;26.08;61.24
63582;BME280;49727;51.078;17.066;2022-09-09T08:30:22;99943.50;;;26.63;55.55
63582;BME280;49727;51.078;17.066;2022-09-09T08:45:31;99936.75;;;28.02;52.27
63582;BME280;49727;51.078;17.066;2022-09-09T09:16:33;99959.81;;;40.73;27.77
63582;BME280;49727;51.078;17.066;2022-09-09T09:31:35;99967.03;;;44.94;20.23
63582;BME280;49727;51.078;17.066;2022-09-09T09:46:35;99961.03;;;43.38;19.13
63582;BME280;49727;51.078;17.066;2022-09-09T10:01:36;99960.19;;;39.84;20.21
63582;BME280;49727;51.078;17.066;2022-09-09T10:48:07;99946.06;;;48.32;13.25
63582;BME280;49727;51.078;17.066;2022-09-09T11:03:27;99934.44;;;50.50;11.72
63582;BME280;49727;51.078;17.066;2022-09-09T11:18:31;99930.69;;;54.82;9.49
63582;BME280;49727;51.078;17.066;2022-09-09T11:33:57;99926.97;;;54.91;8.27
63582;BME280;49727;51.078;17.066;2022-09-09T11:49:03;99935.53;;;54.91;8.48
63582;BME280;49727;51.078;17.066;2022-09-09T12:49:37;99903.53;;;33.05;24.88
63582;BME280;49727;51.078;17.066;2022-09-09T13:04:39;99884.94;;;32.50;25.60
63582;BME280;49727;51.078;17.066;2022-09-09T13:19:43;99872.84;;;31.35;27.10
63582;BME280;49727;51.078;17.066;2022-09-09T13:34:53;99871.81;;;32.29;26.61
63582;BME280;49727;51.078;17.066;2022-09-09T13:49:54;99854.31;;;31.50;27.36
63582;BME280;49727;51.078;17.066;2022-09-09T14:04:54;99842.31;;;30.15;29.15
63582;BME280;49727;51.078;17.066;2022-09-09T14:19:55;99847.03;;;28.70;31.10
63582;BME280;49727;51.078;17.066;2022-09-09T14:34:56;99858.88;;;27.89;32.29
63582;BME280;49727;51.078;17.066;2022-09-09T14:49:56;99835.41;;;26.86;33.93
63582;BME280;49727;51.078;17.066;2022-09-09T15:04:56;99830.38;;;25.79;36.07
63582;BME280;49727;51.078;17.066;2022-09-09T15:19:58;99815.59;;;25.15;38.28
63582;BME280;49727;51.078;17.066;2022-09-09T15:34:58;99810.78;;;24.76;40.24
63582;BME280;49727;51.078;17.066;2022-09-09T15:49:58;99833.56;;;24.13;41.73
63582;BME280;49727;51.078;17.066;2022-09-09T16:04:58;99822.22;;;23.53;43.38
63582;BME280;49727;51.078;17.066;2022-09-09T16:20:02;99825.38;;;22.91;45.27
63582;BME280;49727;51.078;17.066;2022-09-09T16:35:02;99822.81;;;22.42;46.95
63582;BME280;49727;51.078;17.066;2022-09-09T16:50:03;99837.56;;;22.02;48.57
63582;BME280;49727;51.078;17.066;2022-09-09T17:05:03;99840.22;;;21.52;50.13
63582;BME280;49727;51.078;17.066;2022-09-09T17:20:04;99851.44;;;21.00;52.05
63582;BME280;49727;51.078;17.066;2022-09-09T17:35:07;99859.09;;;20.57;53.39
63582;BME280;49727;51.078;17.066;2022-09-09T17:50:08;99853.16;;;20.26;54.90
63582;BME280;49727;51.078;17.066;2022-09-09T18:05:10;99863.47;;;20.00;56.24
63582;BME280;49727;51.078;17.066;2022-09-09T18:20:10;99862.63;;;19.59;57.76
63582;BME280;49727;51.078;17.066;2022-09-09T18:35:10;99867.09;;;19.30;59.31
63582;BME280;49727;51.078;17.066;2022-09-09T18:50:10;99867.94;;;19.06;60.55
63582;BME280;49727;51.078;17.066;2022-09-09T19:05:11;99870.63;;;19.06;61.62
63582;BME280;49727;51.078;17.066;2022-09-09T19:20:11;99873.53;;;18.93;61.92
63582;BME280;49727;51.078;17.066;2022-09-09T19:35:12;99867.06;;;18.82;63.15
63582;BME280;49727;51.078;17.066;2022-09-09T19:50:13;99875.44;;;18.50;64.09
63582;BME280;49727;51.078;17.066;2022-09-09T20:05:13;99875.28;;;18.33;64.60
63582;BME280;49727;51.078;17.066;2022-09-09T20:20:14;99898.69;;;18.21;65.63
63582;BME280;49727;51.078;17.066;2022-09-09T20:35:14;99901.81;;;18.18;66.21
63582;BME280;49727;51.078;17.066;2022-09-09T20:50:15;99923.59;;;18.16;66.95
63582;BME280;49727;51.078;17.066;2022-09-09T21:05:16;99931.72;;;17.98;67.47
63582;BME280;49727;51.078;17.066;2022-09-09T21:20:16;99954.97;;;17.30;68.62
63582;BME280;49727;51.078;17.066;2022-09-09T21:35:16;99982.56;;;16.86;70.65
63582;BME280;49727;51.078;17.066;2022-09-09T21:50:18;100025.13;;;16.57;72.55
63582;BME280;49727;51.078;17.066;2022-09-09T22:05:20;100029.75;;;16.44;74.24
63582;BME280;49727;51.078;17.066;2022-09-09T22:20:20;100041.75;;;16.34;75.01
63582;BME280;49727;51.078;17.066;2022-09-09T22:35:20;100042.66;;;16.15;75.13
63582;BME280;49727;51.078;17.066;2022-09-09T22:50:21;100017.47;;;16.09;75.87
63582;BME280;49727;51.078;17.066;2022-09-09T23:05:22;99977.19;;;15.76;76.95
63582;BME280;49727;51.078;17.066;2022-09-09T23:20:24;99948.75;;;15.54;78.01
63582;BME280;49727;51.078;17.066;2022-09-09T23:35:25;99929.72;;;15.56;78.70
63582;BME280;49727;51.078;17.066;2022-09-09T23:50:26;99968.56;;;15.40;78.58
